sensor_id;sensor_type;location;lat;lon;timestamp;temperature;humidity
3069;DHT22;1545;51.728;8.796;2023-06-04T00:01:21;9.60;74.40
3069;DHT22;1545;51.728;8.796;2023-06-04T00:03:46;9.70;73.30
3069;DHT22;1545;51.728;8.796;2023-06-04T00:06:12;9.70;72.40
3069;DHT22;1545;51.728;8.796;2023-06-04T00:08:37;9.70;72.00
3069;DHT22;1545;51.728;8.796;2023-06-04T00:11:03;9.90;73.30
3069;DHT22;1545;51.728;8.796;2023-06-04T00:13:28;9.90;73.90
3069;DHT22;1545;51.728;8.796;2023-06-04T00:15:54;9.80;73.70
3069;DHT22;1545;51.728;8.796;2023-06-04T00:18:19;9.60;74.60
3069;DHT22;1545;51.728;8.796;2023-06-04T00:20:45;9.50;75.50
3069;DHT22;1545;51.728;8.796;2023-06-04T00:23:11;9.50;75.30
3069;DHT22;1545;51.728;8.796;2023-06-04T00:25:36;9.60;77.00
3069;DHT22;1545;51.728;8.796;2023-06-04T00:28:02;9.50;75.60
3069;DHT22;1545;51.728;8.796;2023-06-04T00:30:27;9.30;75.50
3069;DHT22;1545;51.728;8.796;2023-06-04T00:32:53;9.30;76.00
3069;DHT22;1545;51.728;8.796;2023-06-04T00:35:18;9.20;76.60
3069;DHT22;1545;51.728;8.796;2023-06-04T00:37:44;9.30;77.70
3069;DHT22;1545;51.728;8.796;2023-06-04T00:40:10;9.20;77.10
3069;DHT22;1545;51.728;8.796;2023-06-04T00:42:36;9.00;77.00
3069;DHT22;1545;51.728;8.796;2023-06-04T00:45:02;9.10;78.40
3069;DHT22;1545;51.728;8.796;2023-06-04T00:47:27;9.10;78.10
3069;DHT22;1545;51.728;8.796;2023-06-04T00:49:56;9.20;78.60
3069;DHT22;1545;51.728;8.796;2023-06-04T00:52:21;9.00;78.00
3069;DHT22;1545;51.728;8.796;2023-06-04T00:54:47;9.00;78.20
3069;DHT22;1545;51.728;8.796;2023-06-04T00:57:13;9.10;77.80
3069;DHT22;1545;51.728;8.796;2023-06-04T00:59:39;9.00;78.10
3069;DHT22;1545;51.728;8.796;2023-06-04T01:02:11;8.80;78.10
3069;DHT22;1545;51.728;8.796;2023-06-04T01:07:29;8.70;78.50
3069;DHT22;1545;51.728;8.796;2023-06-04T01:09:55;8.80;78.40
3069;DHT22;1545;51.728;8.796;2023-06-04T01:12:21;8.60;76.80
3069;DHT22;1545;51.728;8.796;2023-06-04T01:14:46;8.60;78.20
3069;DHT22;1545;51.728;8.796;2023-06-04T01:20:14;8.60;79.50
3069;DHT22;1545;51.728;8.796;2023-06-04T01:22:48;8.70;79.10
3069;DHT22;1545;51.728;8.796;2023-06-04T01:25:37;8.70;79.00
3069;DHT22;1545;51.728;8.796;2023-06-04T01:28:08;8.60;79.00
3069;DHT22;1545;51.728;8.796;2023-06-04T01:30:37;8.10;78.60
3069;DHT22;1545;51.728;8.796;2023-06-04T01:33:10;8.10;79.80
3069;DHT22;1545;51.728;8.796;2023-06-04T01:35:36;8.00;80.20
3069;DHT22;1545;51.728;8.796;2023-06-04T01:38:02;8.00;80.80
3069;DHT22;1545;51.728;8.796;2023-06-04T01:40:28;8.10;81.40
3069;DHT22;1545;51.728;8.796;2023-06-04T01:42:54;8.00;81.50
3069;DHT22;1545;51.728;8.796;2023-06-04T01:45:23;8.00;81.80
3069;DHT22;1545;51.728;8.796;2023-06-04T01:47:49;7.90;81.40
3069;DHT22;1545;51.728;8.796;2023-06-04T01:50:15;7.70;81.60
3069;DHT22;1545;51.728;8.796;2023-06-04T01:52:41;7.70;82.10
3069;DHT22;1545;51.728;8.796;2023-06-04T01:55:08;7.50;81.90
3069;DHT22;1545;51.728;8.796;2023-06-04T01:57:34;7.60;82.30
3069;DHT22;1545;51.728;8.796;2023-06-04T02:00:05;7.70;82.30
3069;DHT22;1545;51.728;8.796;2023-06-04T02:02:35;7.70;82.20
3069;DHT22;1545;51.728;8.796;2023-06-04T02:05:02;7.70;82.10
3069;DHT22;1545;51.728;8.796;2023-06-04T02:07:27;7.70;81.80
3069;DHT22;1545;51.728;8.796;2023-06-04T02:09:53;7.70;81.70
3069;DHT22;1545;51.728;8.796;2023-06-04T02:12:18;7.70;82.10
3069;DHT22;1545;51.728;8.796;2023-06-04T02:14:44;7.70;82.10
3069;DHT22;1545;51.728;8.796;2023-06-04T02:17:12;7.60;82.20
3069;DHT22;1545;51.728;8.796;2023-06-04T02:19:44;7.70;82.50
3069;DHT22;1545;51.728;8.796;2023-06-04T02:22:13;7.90;82.90
3069;DHT22;1545;51.728;8.796;2023-06-04T02:24:40;8.00;82.50
3069;DHT22;1545;51.728;8.796;2023-06-04T02:27:08;8.20;82.30
3069;DHT22;1545;51.728;8.796;2023-06-04T02:29:34;8.30;82.20
3069;DHT22;1545;51.728;8.796;2023-06-04T02:31:59;8.30;82.20
3069;DHT22;1545;51.728;8.796;2023-06-04T02:34:25;8.40;82.40
3069;DHT22;1545;51.728;8.796;2023-06-04T02:36:50;8.30;82.50
3069;DHT22;1545;51.728;8.796;2023-06-04T02:39:20;8.30;82.60
3069;DHT22;1545;51.728;8.796;2023-06-04T02:41:46;8.20;82.70
3069;DHT22;1545;51.728;8.796;2023-06-04T02:44:11;8.10;83.30
3069;DHT22;1545;51.728;8.796;2023-06-04T02:46:37;8.00;83.40
3069;DHT22;1545;51.728;8.796;2023-06-04T02:49:03;7.70;83.30
3069;DHT22;1545;51.728;8.796;2023-06-04T02:51:29;7.30;83.10
3069;DHT22;1545;51.728;8.796;2023-06-04T02:53:55;7.20;83.50
3069;DHT22;1545;51.728;8.796;2023-06-04T02:56:20;7.20;84.20
3069;DHT22;1545;51.728;8.796;2023-06-04T02:58:53;7.20;84.70
3069;DHT22;1545;51.728;8.796;2023-06-04T03:01:24;7.30;85.00
3069;DHT22;1545;51.728;8.796;2023-06-04T03:03:51;7.30;84.70
3069;DHT22;1545;51.728;8.796;2023-06-04T03:06:17;7.40;85.20
3069;DHT22;1545;51.728;8.796;2023-06-04T03:08:45;7.30;85.10
3069;DHT22;1545;51.728;8.796;2023-06-04T03:11:11;7.30;84.50
3069;DHT22;1545;51.728;8.796;2023-06-04T03:13:38;7.30;84.40
3069;DHT22;1545;51.728;8.796;2023-06-04T03:16:04;7.20;83.50
3069;DHT22;1545;51.728;8.796;2023-06-04T03:18:39;7.20;84.10
3069;DHT22;1545;51.728;8.796;2023-06-04T03:21:05;7.30;84.50
3069;DHT22;1545;51.728;8.796;2023-06-04T03:23:31;6.70;82.60
3069;DHT22;1545;51.728;8.796;2023-06-04T03:25:56;6.80;84.10
3069;DHT22;1545;51.728;8.796;2023-06-04T03:28:22;7.00;84.80
3069;DHT22;1545;51.728;8.796;2023-06-04T03:30:47;6.90;84.10
3069;DHT22;1545;51.728;8.796;2023-06-04T03:33:13;7.00;84.60
3069;DHT22;1545;51.728;8.796;2023-06-04T03:35:40;7.00;84.50
3069;DHT22;1545;51.728;8.796;2023-06-04T03:38:06;7.10;84.70
3069;DHT22;1545;51.728;8.796;2023-06-04T03:40:32;7.20;84.50
3069;DHT22;1545;51.728;8.796;2023-06-04T03:42:57;7.30;84.50
3069;DHT22;1545;51.728;8.796;2023-06-04T03:45:23;7.50;85.00
3069;DHT22;1545;51.728;8.796;2023-06-04T03:47:48;7.40;84.80
3069;DHT22;1545;51.728;8.796;2023-06-04T03:50:14;7.30;84.10
3069;DHT22;1545;51.728;8.796;2023-06-04T03:52:39;7.40;84.50
3069;DHT22;1545;51.728;8.796;2023-06-04T03:55:05;7.50;84.70
3069;DHT22;1545;51.728;8.796;2023-06-04T03:57:31;7.60;84.50
3069;DHT22;1545;51.728;8.796;2023-06-04T03:59:58;7.80;84.80
3069;DHT22;1545;51.728;8.796;2023-06-04T04:02:23;7.90;84.60
3069;DHT22;1545;51.728;8.796;2023-06-04T04:04:49;8.20;84.40
3069;DHT22;1545;51.728;8.796;2023-06-04T04:07:15;8.70;83.90
3069;DHT22;1545;51.728;8.796;2023-06-04T04:09:41;9.30;81.90
3069;DHT22;1545;51.728;8.796;2023-06-04T04:12:06;9.70;80.90
3069;DHT22;1545;51.728;8.796;2023-06-04T04:14:32;10.90;78.80
3069;DHT22;1545;51.728;8.796;2023-06-04T04:16:57;12.60;73.90
3069;DHT22;1545;51.728;8.796;2023-06-04T04:19:23;14.00;69.90
3069;DHT22;1545;51.728;8.796;2023-06-04T04:21:48;14.30;67.40
3069;DHT22;1545;51.728;8.796;2023-06-04T04:24:27;14.10;67.90
3069;DHT22;1545;51.728;8.796;2023-06-04T04:26:53;14.40;69.30
3069;DHT22;1545;51.728;8.796;2023-06-04T04:29:22;14.10;69.60
3069;DHT22;1545;51.728;8.796;2023-06-04T04:31:50;15.10;66.10
3069;DHT22;1545;51.728;8.796;2023-06-04T04:34:15;17.00;60.70
3069;DHT22;1545;51.728;8.796;2023-06-04T04:36:42;18.20;57.50
3069;DHT22;1545;51.728;8.796;2023-06-04T04:39:09;19.40;55.10
3069;DHT22;1545;51.728;8.796;2023-06-04T04:41:36;20.50;53.00
3069;DHT22;1545;51.728;8.796;2023-06-04T04:44:05;21.60;50.30
3069;DHT22;1545;51.728;8.796;2023-06-04T04:46:31;22.70;49.40
3069;DHT22;1545;51.728;8.796;2023-06-04T04:48:57;23.60;47.70
3069;DHT22;1545;51.728;8.796;2023-06-04T04:51:22;24.00;46.40
3069;DHT22;1545;51.728;8.796;2023-06-04T04:53:48;23.70;47.10
3069;DHT22;1545;51.728;8.796;2023-06-04T04:56:14;24.00;45.50
3069;DHT22;1545;51.728;8.796;2023-06-04T04:58:39;24.40;47.60
3069;DHT22;1545;51.728;8.796;2023-06-04T05:01:05;24.80;47.00
3069;DHT22;1545;51.728;8.796;2023-06-04T05:03:30;25.50;45.90
3069;DHT22;1545;51.728;8.796;2023-06-04T05:05:56;25.80;45.60
3069;DHT22;1545;51.728;8.796;2023-06-04T05:08:21;26.00;44.20
3069;DHT22;1545;51.728;8.796;2023-06-04T05:10:48;26.50;43.70
3069;DHT22;1545;51.728;8.796;2023-06-04T05:13:14;27.10;41.70
3069;DHT22;1545;51.728;8.796;2023-06-04T05:15:40;27.60;40.70
3069;DHT22;1545;51.728;8.796;2023-06-04T05:18:07;27.70;41.00
3069;DHT22;1545;51.728;8.796;2023-06-04T05:20:33;27.60;40.50
3069;DHT22;1545;51.728;8.796;2023-06-04T05:23:00;28.50;40.30
3069;DHT22;1545;51.728;8.796;2023-06-04T05:25:27;28.70;40.20
3069;DHT22;1545;51.728;8.796;2023-06-04T05:27:55;28.80;39.40
3069;DHT22;1545;51.728;8.796;2023-06-04T05:30:21;28.90;38.60
3069;DHT22;1545;51.728;8.796;2023-06-04T05:32:47;27.50;39.80
3069;DHT22;1545;51.728;8.796;2023-06-04T05:35:12;28.20;39.10
3069;DHT22;1545;51.728;8.796;2023-06-04T05:37:38;29.50;37.80
3069;DHT22;1545;51.728;8.796;2023-06-04T05:40:06;30.70;36.40
3069;DHT22;1545;51.728;8.796;2023-06-04T05:42:31;31.20;35.20
3069;DHT22;1545;51.728;8.796;2023-06-04T05:44:57;31.40;35.10
3069;DHT22;1545;51.728;8.796;2023-06-04T05:47:22;31.20;34.90
3069;DHT22;1545;51.728;8.796;2023-06-04T05:49:48;31.30;34.70
3069;DHT22;1545;51.728;8.796;2023-06-04T05:52:13;31.20;35.50
3069;DHT22;1545;51.728;8.796;2023-06-04T05:54:39;31.30;35.00
3069;DHT22;1545;51.728;8.796;2023-06-04T05:57:05;31.90;34.30
3069;DHT22;1545;51.728;8.796;2023-06-04T05:59:31;31.50;34.90
3069;DHT22;1545;51.728;8.796;2023-06-04T06:01:57;31.60;35.00
3069;DHT22;1545;51.728;8.796;2023-06-04T06:04:23;32.10;33.90
3069;DHT22;1545;51.728;8.796;2023-06-04T06:06:48;31.70;34.30
3069;DHT22;1545;51.728;8.796;2023-06-04T06:09:15;32.50;34.00
3069;DHT22;1545;51.728;8.796;2023-06-04T06:11:41;32.70;33.50
3069;DHT22;1545;51.728;8.796;2023-06-04T06:14:07;33.30;32.90
3069;DHT22;1545;51.728;8.796;2023-06-04T06:16:33;33.50;32.70
3069;DHT22;1545;51.728;8.796;2023-06-04T06:18:59;33.60;32.40
3069;DHT22;1545;51.728;8.796;2023-06-04T06:21:25;33.80;32.00
3069;DHT22;1545;51.728;8.796;2023-06-04T06:23:51;33.70;32.00
3069;DHT22;1545;51.728;8.796;2023-06-04T06:26:17;33.90;32.00
3069;DHT22;1545;51.728;8.796;2023-06-04T06:28:43;34.10;31.60
3069;DHT22;1545;51.728;8.796;2023-06-04T06:31:09;33.70;31.90
3069;DHT22;1545;51.728;8.796;2023-06-04T06:33:35;33.90;32.00
3069;DHT22;1545;51.728;8.796;2023-06-04T06:36:10;33.70;32.50
3069;DHT22;1545;51.728;8.796;2023-06-04T06:38:37;34.00;32.30
3069;DHT22;1545;51.728;8.796;2023-06-04T06:41:03;34.10;32.40
3069;DHT22;1545;51.728;8.796;2023-06-04T06:43:28;34.20;32.20
3069;DHT22;1545;51.728;8.796;2023-06-04T06:45:54;34.30;32.70
3069;DHT22;1545;51.728;8.796;2023-06-04T06:48:19;34.10;32.70
3069;DHT22;1545;51.728;8.796;2023-06-04T06:50:45;33.60;33.30
3069;DHT22;1545;51.728;8.796;2023-06-04T06:53:10;32.80;34.20
3069;DHT22;1545;51.728;8.796;2023-06-04T06:55:36;33.20;34.30
3069;DHT22;1545;51.728;8.796;2023-06-04T06:58:01;33.50;34.30
3069;DHT22;1545;51.728;8.796;2023-06-04T07:00:27;33.60;33.50
3069;DHT22;1545;51.728;8.796;2023-06-04T07:02:53;32.60;34.70
3069;DHT22;1545;51.728;8.796;2023-06-04T07:05:19;32.30;35.00
3069;DHT22;1545;51.728;8.796;2023-06-04T07:07:45;32.10;34.80
3069;DHT22;1545;51.728;8.796;2023-06-04T07:10:11;31.70;34.80
3069;DHT22;1545;51.728;8.796;2023-06-04T07:12:37;31.00;35.90
3069;DHT22;1545;51.728;8.796;2023-06-04T07:15:04;30.80;35.90
3069;DHT22;1545;51.728;8.796;2023-06-04T07:17:30;30.50;35.30
3069;DHT22;1545;51.728;8.796;2023-06-04T07:19:56;31.30;35.60
3069;DHT22;1545;51.728;8.796;2023-06-04T07:22:21;31.40;32.80
3069;DHT22;1545;51.728;8.796;2023-06-04T07:24:47;31.50;31.70
3069;DHT22;1545;51.728;8.796;2023-06-04T07:27:13;29.30;34.10
3069;DHT22;1545;51.728;8.796;2023-06-04T07:29:39;30.10;33.00
3069;DHT22;1545;51.728;8.796;2023-06-04T07:32:05;29.10;33.80
3069;DHT22;1545;51.728;8.796;2023-06-04T07:34:31;28.70;34.80
3069;DHT22;1545;51.728;8.796;2023-06-04T07:36:56;28.90;34.70
3069;DHT22;1545;51.728;8.796;2023-06-04T07:39:21;28.40;35.00
3069;DHT22;1545;51.728;8.796;2023-06-04T07:41:47;28.80;35.40
3069;DHT22;1545;51.728;8.796;2023-06-04T07:44:13;29.10;33.80
3069;DHT22;1545;51.728;8.796;2023-06-04T07:46:38;29.10;33.70
3069;DHT22;1545;51.728;8.796;2023-06-04T07:49:04;28.70;35.30
3069;DHT22;1545;51.728;8.796;2023-06-04T07:51:29;28.10;35.90
3069;DHT22;1545;51.728;8.796;2023-06-04T07:53:55;26.70;37.90
3069;DHT22;1545;51.728;8.796;2023-06-04T07:56:20;26.80;37.80
3069;DHT22;1545;51.728;8.796;2023-06-04T07:58:46;27.10;39.00
3069;DHT22;1545;51.728;8.796;2023-06-04T08:01:12;26.80;37.70
3069;DHT22;1545;51.728;8.796;2023-06-04T08:03:37;27.60;36.50
3069;DHT22;1545;51.728;8.796;2023-06-04T08:06:03;27.80;35.80
3069;DHT22;1545;51.728;8.796;2023-06-04T08:08:29;27.20;36.60
3069;DHT22;1545;51.728;8.796;2023-06-04T08:10:55;27.40;35.90
3069;DHT22;1545;51.728;8.796;2023-06-04T08:13:20;27.70;34.00
3069;DHT22;1545;51.728;8.796;2023-06-04T08:15:46;27.30;34.90
3069;DHT22;1545;51.728;8.796;2023-06-04T08:18:11;26.50;37.40
3069;DHT22;1545;51.728;8.796;2023-06-04T08:20:37;27.90;36.10
3069;DHT22;1545;51.728;8.796;2023-06-04T08:23:02;28.50;34.50
3069;DHT22;1545;51.728;8.796;2023-06-04T08:25:28;28.80;35.60
3069;DHT22;1545;51.728;8.796;2023-06-04T08:27:55;29.80;32.90
3069;DHT22;1545;51.728;8.796;2023-06-04T08:30:21;29.80;31.60
3069;DHT22;1545;51.728;8.796;2023-06-04T08:32:46;29.60;34.40
3069;DHT22;1545;51.728;8.796;2023-06-04T08:35:12;28.90;33.00
3069;DHT22;1545;51.728;8.796;2023-06-04T08:37:37;28.90;35.30
3069;DHT22;1545;51.728;8.796;2023-06-04T08:40:03;28.20;35.00
3069;DHT22;1545;51.728;8.796;2023-06-04T08:42:31;28.00;34.00
3069;DHT22;1545;51.728;8.796;2023-06-04T08:45:00;28.50;35.20
3069;DHT22;1545;51.728;8.796;2023-06-04T08:47:26;28.10;34.80
3069;DHT22;1545;51.728;8.796;2023-06-04T08:49:52;27.30;34.70
3069;DHT22;1545;51.728;8.796;2023-06-04T08:52:18;27.20;36.00
3069;DHT22;1545;51.728;8.796;2023-06-04T08:54:49;27.00;36.00
3069;DHT22;1545;51.728;8.796;2023-06-04T08:57:19;25.80;35.60
3069;DHT22;1545;51.728;8.796;2023-06-04T08:59:48;26.30;38.00
3069;DHT22;1545;51.728;8.796;2023-06-04T09:02:15;25.70;37.20
3069;DHT22;1545;51.728;8.796;2023-06-04T09:04:40;26.70;36.50
3069;DHT22;1545;51.728;8.796;2023-06-04T09:07:08;26.00;39.40
3069;DHT22;1545;51.728;8.796;2023-06-04T09:09:38;26.30;37.80
3069;DHT22;1545;51.728;8.796;2023-06-04T09:12:07;25.60;38.20
3069;DHT22;1545;51.728;8.796;2023-06-04T09:14:33;25.80;37.70
3069;DHT22;1545;51.728;8.796;2023-06-04T09:16:59;26.30;37.60
3069;DHT22;1545;51.728;8.796;2023-06-04T09:19:24;26.50;36.40
3069;DHT22;1545;51.728;8.796;2023-06-04T09:21:51;27.60;35.80
3069;DHT22;1545;51.728;8.796;2023-06-04T09:24:17;27.90;33.90
3069;DHT22;1545;51.728;8.796;2023-06-04T09:26:43;27.50;34.70
3069;DHT22;1545;51.728;8.796;2023-06-04T09:29:09;27.50;34.50
3069;DHT22;1545;51.728;8.796;2023-06-04T09:31:34;27.10;35.40
3069;DHT22;1545;51.728;8.796;2023-06-04T09:34:05;26.50;38.00
3069;DHT22;1545;51.728;8.796;2023-06-04T09:36:31;26.60;36.90
3069;DHT22;1545;51.728;8.796;2023-06-04T09:38:57;27.10;35.80
3069;DHT22;1545;51.728;8.796;2023-06-04T09:41:22;27.00;35.00
3069;DHT22;1545;51.728;8.796;2023-06-04T09:43:48;26.80;36.30
3069;DHT22;1545;51.728;8.796;2023-06-04T09:46:16;27.90;35.20
3069;DHT22;1545;51.728;8.796;2023-06-04T09:48:42;28.70;33.20
3069;DHT22;1545;51.728;8.796;2023-06-04T09:51:13;29.30;32.60
3069;DHT22;1545;51.728;8.796;2023-06-04T09:53:40;29.80;32.40
3069;DHT22;1545;51.728;8.796;2023-06-04T09:56:06;29.70;32.80
3069;DHT22;1545;51.728;8.796;2023-06-04T09:58:33;29.70;32.90
3069;DHT22;1545;51.728;8.796;2023-06-04T10:01:00;28.70;34.10
3069;DHT22;1545;51.728;8.796;2023-06-04T10:03:35;27.70;34.70
3069;DHT22;1545;51.728;8.796;2023-06-04T10:06:03;27.40;36.40
3069;DHT22;1545;51.728;8.796;2023-06-04T10:08:30;27.10;37.30
3069;DHT22;1545;51.728;8.796;2023-06-04T10:10:58;27.00;37.60
3069;DHT22;1545;51.728;8.796;2023-06-04T10:13:27;26.50;37.00
3069;DHT22;1545;51.728;8.796;2023-06-04T10:15:55;26.10;37.60
3069;DHT22;1545;51.728;8.796;2023-06-04T10:18:21;25.50;38.90
3069;DHT22;1545;51.728;8.796;2023-06-04T10:20:47;24.90;39.90
3069;DHT22;1545;51.728;8.796;2023-06-04T10:23:14;24.30;39.90
3069;DHT22;1545;51.728;8.796;2023-06-04T10:25:39;23.70;41.30
3069;DHT22;1545;51.728;8.796;2023-06-04T10:28:05;23.50;42.10
3069;DHT22;1545;51.728;8.796;2023-06-04T10:30:31;23.00;43.30
3069;DHT22;1545;51.728;8.796;2023-06-04T10:32:57;22.70;42.40
3069;DHT22;1545;51.728;8.796;2023-06-04T10:35:33;22.40;42.30
3069;DHT22;1545;51.728;8.796;2023-06-04T10:38:12;22.40;42.80
3069;DHT22;1545;51.728;8.796;2023-06-04T10:40:42;22.40;43.40
3069;DHT22;1545;51.728;8.796;2023-06-04T10:43:11;22.00;43.90
3069;DHT22;1545;51.728;8.796;2023-06-04T10:45:38;22.00;44.50
3069;DHT22;1545;51.728;8.796;2023-06-04T10:48:05;22.00;45.30
3069;DHT22;1545;51.728;8.796;2023-06-04T10:50:34;22.10;44.90
3069;DHT22;1545;51.728;8.796;2023-06-04T10:53:00;22.10;46.10
3069;DHT22;1545;51.728;8.796;2023-06-04T10:55:29;21.80;47.30
3069;DHT22;1545;51.728;8.796;2023-06-04T10:58:00;22.00;46.80
3069;DHT22;1545;51.728;8.796;2023-06-04T11:00:42;21.80;47.60
3069;DHT22;1545;51.728;8.796;2023-06-04T11:03:12;21.70;47.10
3069;DHT22;1545;51.728;8.796;2023-06-04T11:05:46;21.70;46.20
3069;DHT22;1545;51.728;8.796;2023-06-04T11:08:13;22.30;45.60
3069;DHT22;1545;51.728;8.796;2023-06-04T11:10:44;22.70;45.20
3069;DHT22;1545;51.728;8.796;2023-06-04T11:13:10;23.00;45.20
3069;DHT22;1545;51.728;8.796;2023-06-04T11:15:42;22.90;44.60
3069;DHT22;1545;51.728;8.796;2023-06-04T11:18:20;22.80;45.10
3069;DHT22;1545;51.728;8.796;2023-06-04T11:20:59;22.90;44.20
3069;DHT22;1545;51.728;8.796;2023-06-04T11:23:25;22.80;44.40
3069;DHT22;1545;51.728;8.796;2023-06-04T11:25:52;22.40;44.60
3069;DHT22;1545;51.728;8.796;2023-06-04T11:28:19;22.30;45.40
3069;DHT22;1545;51.728;8.796;2023-06-04T11:30:56;22.30;45.10
3069;DHT22;1545;51.728;8.796;2023-06-04T11:33:22;22.20;47.10
3069;DHT22;1545;51.728;8.796;2023-06-04T11:35:47;22.50;46.00
3069;DHT22;1545;51.728;8.796;2023-06-04T11:38:13;22.60;46.00
3069;DHT22;1545;51.728;8.796;2023-06-04T11:40:38;22.00;44.90
3069;DHT22;1545;51.728;8.796;2023-06-04T11:43:04;22.30;45.30
3069;DHT22;1545;51.728;8.796;2023-06-04T11:45:30;22.40;44.70
3069;DHT22;1545;51.728;8.796;2023-06-04T11:47:57;22.40;45.10
3069;DHT22;1545;51.728;8.796;2023-06-04T11:50:26;22.40;45.20
3069;DHT22;1545;51.728;8.796;2023-06-04T11:52:53;22.20;46.20
3069;DHT22;1545;51.728;8.796;2023-06-04T11:55:19;22.60;45.80
3069;DHT22;1545;51.728;8.796;2023-06-04T11:57:48;22.90;45.00
3069;DHT22;1545;51.728;8.796;2023-06-04T12:00:15;22.00;45.10
3069;DHT22;1545;51.728;8.796;2023-06-04T12:02:52;22.10;44.60
3069;DHT22;1545;51.728;8.796;2023-06-04T12:05:19;22.40;44.30
3069;DHT22;1545;51.728;8.796;2023-06-04T12:07:46;22.50;43.70
3069;DHT22;1545;51.728;8.796;2023-06-04T12:10:13;22.60;44.00
3069;DHT22;1545;51.728;8.796;2023-06-04T12:12:39;22.50;44.70
3069;DHT22;1545;51.728;8.796;2023-06-04T12:15:08;22.60;45.50
3069;DHT22;1545;51.728;8.796;2023-06-04T12:17:48;22.60;44.80
3069;DHT22;1545;51.728;8.796;2023-06-04T12:20:13;22.90;44.50
3069;DHT22;1545;51.728;8.796;2023-06-04T12:22:47;23.10;44.60
3069;DHT22;1545;51.728;8.796;2023-06-04T12:25:24;22.80;45.10
3069;DHT22;1545;51.728;8.796;2023-06-04T12:27:50;22.70;45.50
3069;DHT22;1545;51.728;8.796;2023-06-04T12:30:16;22.90;44.60
3069;DHT22;1545;51.728;8.796;2023-06-04T12:32:41;23.20;43.40
3069;DHT22;1545;51.728;8.796;2023-06-04T12:35:11;22.80;45.30
3069;DHT22;1545;51.728;8.796;2023-06-04T12:37:36;23.10;43.60
3069;DHT22;1545;51.728;8.796;2023-06-04T12:40:02;22.70;43.60
3069;DHT22;1545;51.728;8.796;2023-06-04T12:42:29;23.00;43.20
3069;DHT22;1545;51.728;8.796;2023-06-04T12:44:55;23.00;43.00
3069;DHT22;1545;51.728;8.796;2023-06-04T12:47:21;23.40;43.10
3069;DHT22;1545;51.728;8.796;2023-06-04T12:49:46;23.60;44.10
3069;DHT22;1545;51.728;8.796;2023-06-04T12:52:12;23.00;43.20
3069;DHT22;1545;51.728;8.796;2023-06-04T12:54:42;23.30;42.40
3069;DHT22;1545;51.728;8.796;2023-06-04T12:57:07;23.70;42.40
3069;DHT22;1545;51.728;8.796;2023-06-04T12:59:33;23.30;42.70
3069;DHT22;1545;51.728;8.796;2023-06-04T13:01:58;23.20;42.80
3069;DHT22;1545;51.728;8.796;2023-06-04T13:04:24;23.40;43.60
3069;DHT22;1545;51.728;8.796;2023-06-04T13:06:49;23.70;42.70
3069;DHT22;1545;51.728;8.796;2023-06-04T13:09:17;23.30;43.60
3069;DHT22;1545;51.728;8.796;2023-06-04T13:11:44;23.50;41.50
3069;DHT22;1545;51.728;8.796;2023-06-04T13:14:10;23.70;42.90
3069;DHT22;1545;51.728;8.796;2023-06-04T13:16:37;23.40;44.30
3069;DHT22;1545;51.728;8.796;2023-06-04T13:19:03;23.70;41.20
3069;DHT22;1545;51.728;8.796;2023-06-04T13:21:29;23.60;40.50
3069;DHT22;1545;51.728;8.796;2023-06-04T13:23:55;23.30;41.20
3069;DHT22;1545;51.728;8.796;2023-06-04T13:26:22;23.10;43.90
3069;DHT22;1545;51.728;8.796;2023-06-04T13:28:47;23.40;43.80
3069;DHT22;1545;51.728;8.796;2023-06-04T13:31:13;23.20;45.30
3069;DHT22;1545;51.728;8.796;2023-06-04T13:33:39;22.70;43.60
3069;DHT22;1545;51.728;8.796;2023-06-04T13:36:05;22.70;44.20
3069;DHT22;1545;51.728;8.796;2023-06-04T13:38:33;22.60;42.30
3069;DHT22;1545;51.728;8.796;2023-06-04T13:40:59;22.70;42.90
3069;DHT22;1545;51.728;8.796;2023-06-04T13:43:25;22.90;43.70
3069;DHT22;1545;51.728;8.796;2023-06-04T13:45:50;23.00;44.20
3069;DHT22;1545;51.728;8.796;2023-06-04T13:48:16;23.30;44.40
3069;DHT22;1545;51.728;8.796;2023-06-04T13:50:42;23.30;43.20
3069;DHT22;1545;51.728;8.796;2023-06-04T13:53:08;23.70;44.00
3069;DHT22;1545;51.728;8.796;2023-06-04T13:55:34;23.80;44.20
3069;DHT22;1545;51.728;8.796;2023-06-04T13:58:00;23.90;42.40
3069;DHT22;1545;51.728;8.796;2023-06-04T14:00:25;24.00;41.70
3069;DHT22;1545;51.728;8.796;2023-06-04T14:02:51;24.00;41.90
3069;DHT22;1545;51.728;8.796;2023-06-04T14:05:17;23.90;43.70
3069;DHT22;1545;51.728;8.796;2023-06-04T14:07:43;24.00;44.00
3069;DHT22;1545;51.728;8.796;2023-06-04T14:10:10;24.20;42.50
3069;DHT22;1545;51.728;8.796;2023-06-04T14:12:37;24.20;41.50
3069;DHT22;1545;51.728;8.796;2023-06-04T14:15:04;24.30;41.00
3069;DHT22;1545;51.728;8.796;2023-06-04T14:17:30;23.90;42.00
3069;DHT22;1545;51.728;8.796;2023-06-04T14:19:55;24.20;43.20
3069;DHT22;1545;51.728;8.796;2023-06-04T14:22:21;24.40;42.30
3069;DHT22;1545;51.728;8.796;2023-06-04T14:24:46;24.10;43.00
3069;DHT22;1545;51.728;8.796;2023-06-04T14:27:12;23.70;42.80
3069;DHT22;1545;51.728;8.796;2023-06-04T14:29:38;23.80;42.40
3069;DHT22;1545;51.728;8.796;2023-06-04T14:32:04;23.50;43.20
3069;DHT22;1545;51.728;8.796;2023-06-04T14:34:30;23.80;44.80
3069;DHT22;1545;51.728;8.796;2023-06-04T14:36:57;23.80;44.00
3069;DHT22;1545;51.728;8.796;2023-06-04T14:39:27;23.80;45.40
3069;DHT22;1545;51.728;8.796;2023-06-04T14:41:53;23.60;44.20
3069;DHT22;1545;51.728;8.796;2023-06-04T14:44:19;24.00;43.80
3069;DHT22;1545;51.728;8.796;2023-06-04T14:46:45;23.70;44.80
3069;DHT22;1545;51.728;8.796;2023-06-04T14:49:11;23.30;44.60
3069;DHT22;1545;51.728;8.796;2023-06-04T14:51:36;23.50;43.70
3069;DHT22;1545;51.728;8.796;2023-06-04T14:54:02;23.50;44.20
3069;DHT22;1545;51.728;8.796;2023-06-04T14:56:28;23.80;43.30
3069;DHT22;1545;51.728;8.796;2023-06-04T14:58:56;23.90;42.90
3069;DHT22;1545;51.728;8.796;2023-06-04T15:01:21;23.50;44.70
3069;DHT22;1545;51.728;8.796;2023-06-04T15:03:49;23.70;44.90
3069;DHT22;1545;51.728;8.796;2023-06-04T15:06:15;23.50;44.30
3069;DHT22;1545;51.728;8.796;2023-06-04T15:08:41;23.60;44.30
3069;DHT22;1545;51.728;8.796;2023-06-04T15:11:06;23.80;44.00
3069;DHT22;1545;51.728;8.796;2023-06-04T15:13:32;23.70;45.30
3069;DHT22;1545;51.728;8.796;2023-06-04T15:15:57;23.50;44.30
3069;DHT22;1545;51.728;8.796;2023-06-04T15:18:23;23.30;43.70
3069;DHT22;1545;51.728;8.796;2023-06-04T15:20:48;23.40;43.50
3069;DHT22;1545;51.728;8.796;2023-06-04T15:23:14;23.80;44.50
3069;DHT22;1545;51.728;8.796;2023-06-04T15:25:39;23.60;44.80
3069;DHT22;1545;51.728;8.796;2023-06-04T15:28:05;23.10;43.70
3069;DHT22;1545;51.728;8.796;2023-06-04T15:30:31;23.00;45.40
3069;DHT22;1545;51.728;8.796;2023-06-04T15:32:57;23.10;44.90
3069;DHT22;1545;51.728;8.796;2023-06-04T15:35:28;23.40;44.00
3069;DHT22;1545;51.728;8.796;2023-06-04T15:37:54;23.30;44.40
3069;DHT22;1545;51.728;8.796;2023-06-04T15:40:19;23.80;44.40
3069;DHT22;1545;51.728;8.796;2023-06-04T15:42:45;23.90;41.70
3069;DHT22;1545;51.728;8.796;2023-06-04T15:45:11;23.90;42.30
3069;DHT22;1545;51.728;8.796;2023-06-04T15:47:36;23.50;44.20
3069;DHT22;1545;51.728;8.796;2023-06-04T15:50:02;23.50;45.20
3069;DHT22;1545;51.728;8.796;2023-06-04T15:52:27;23.90;44.80
3069;DHT22;1545;51.728;8.796;2023-06-04T15:54:53;23.80;44.40
3069;DHT22;1545;51.728;8.796;2023-06-04T15:57:18;23.60;45.50
3069;DHT22;1545;51.728;8.796;2023-06-04T15:59:44;23.40;46.20
3069;DHT22;1545;51.728;8.796;2023-06-04T16:02:10;23.50;45.10
3069;DHT22;1545;51.728;8.796;2023-06-04T16:04:36;23.40;44.70
3069;DHT22;1545;51.728;8.796;2023-06-04T16:07:01;23.50;45.00